Time;durP1;ratioP1;P1;durP2;ratioP2;P2;SDS_P1;SDS_P2;PMS_P1;PMS_P2;Temp;Humidity;BMP_temperature;BMP_pressure;BME280_temperature;BME280_humidity;BME280_pressure;Samples;Min_cycle;Max_cycle;Signal;HPM_P1;HPM_P2
2021/09/21 00:01:20;;;;;;;;;;;;;;;10.87;76.14;98901.66;1692186;83;24482;-87
2021/09/21 00:03:46;;;;;;;;;;;;;;;10.85;76.16;98906.17;1686532;83;20432;-87
2021/09/21 00:06:15;;;;;;;;;;;;;;;10.84;76.20;98908.88;1686476;83;20303;-87
2021/09/21 00:08:41;;;;;;;;;;;;;;;10.88;76.24;98909.90;1698791;83;21828;-87
2021/09/21 00:11:07;;;;;;;;;;;;;;;10.92;76.25;98905.30;1683918;83;25922;-87
2021/09/21 00:13:34;;;;;;;;;;;;;;;11.06;76.30;98909.20;1686919;83;24514;-87
2021/09/21 00:16:01;;;;;;;;;;;;;;;11.16;76.32;98907.66;1686118;83;20264;-87
2021/09/21 00:18:33;;;;;;;;;;;;;;;11.22;76.33;98899.41;1716086;81;24767;-87
2021/09/21 00:21:00;;;;;;;;;;;;;;;11.26;76.31;98907.90;1674664;84;22049;-88
2021/09/21 00:23:26;;;;;;;;;;;;;;;11.26;76.28;98910.05;1664278;85;26072;-88
2021/09/21 00:25:52;;;;;;;;;;;;;;;11.27;76.23;98905.66;1689279;83;24486;-88
2021/09/21 00:28:18;;;;;;;;;;;;;;;11.25;76.13;98901.81;1687441;83;20628;-86
2021/09/21 00:30:52;;;;;;;;;;;;;;;11.12;76.00;98902.27;1687573;83;24716;-87
2021/09/21 00:33:19;;;;;;;;;;;;;;;11.09;75.90;98902.44;1688645;83;22787;-87
2021/09/21 00:35:47;;;;;;;;;;;;;;;11.06;75.82;98906.58;1690917;83;26702;-87
2021/09/21 00:38:14;;;;;;;;;;;;;;;11.06;75.74;98897.41;1685124;83;24398;-87
2021/09/21 00:40:41;;;;;;;;;;;;;;;11.07;75.70;98903.03;1686096;83;20209;-87
2021/09/21 00:43:07;;;;;;;;;;;;;;;11.04;75.67;98896.66;1663687;84;24922;-86
2021/09/21 00:45:33;;;;;;;;;;;;;;;10.98;75.59;98902.75;1688145;83;20219;-86
2021/09/21 00:48:00;;;;;;;;;;;;;;;10.89;75.55;98896.34;1677180;83;25987;-87
2021/09/21 00:50:27;;;;;;;;;;;;;;;10.86;75.51;98886.05;1671716;84;24667;-88
2021/09/21 00:53:00;;;;;;;;;;;;;;;10.77;75.47;98879.63;1666158;84;20549;-87
2021/09/21 00:55:27;;;;;;;;;;;;;;;10.60;75.41;98883.77;1664403;85;24784;-87
2021/09/21 00:57:53;;;;;;;;;;;;;;;10.60;75.40;98886.86;1663149;85;21956;-87
2021/09/21 01:00:20;;;;;;;;;;;;;;;10.52;75.39;98883.42;1665882;83;25965;-87
2021/09/21 01:02:46;;;;;;;;;;;;;;;10.46;75.33;98885.95;1651385;85;23888;-87
2021/09/21 01:05:13;;;;;;;;;;;;;;;10.43;75.33;98881.36;1654196;85;20349;-88
2021/09/21 01:07:39;;;;;;;;;;;;;;;10.32;75.29;98883.34;1700488;82;24773;-87
2021/09/21 01:10:07;;;;;;;;;;;;;;;10.26;75.27;98886.32;1651984;85;21695;-87
2021/09/21 01:12:33;;;;;;;;;;;;;;;10.27;75.22;98886.70;1653371;85;26017;-88
2021/09/21 01:15:00;;;;;;;;;;;;;;;10.26;75.21;98885.48;1651114;85;24441;-87
2021/09/21 01:17:27;;;;;;;;;;;;;;;10.23;75.13;98887.83;1646149;85;20528;-87
2021/09/21 01:19:56;;;;;;;;;;;;;;;10.20;75.05;98888.00;1661203;85;24762;-88
2021/09/21 01:22:30;;;;;;;;;;;;;;;10.16;74.97;98894.36;1654924;85;22802;-87
2021/09/21 01:24:56;;;;;;;;;;;;;;;10.05;74.90;98896.29;1654861;84;26003;-88
2021/09/21 01:27:22;;;;;;;;;;;;;;;9.90;74.81;98893.30;1654223;86;20828;-88
2021/09/21 01:29:48;;;;;;;;;;;;;;;9.81;74.77;98893.01;1656521;85;20167;-87
2021/09/21 01:32:16;;;;;;;;;;;;;;;9.75;74.76;98893.38;1654809;84;20359;-88
2021/09/21 01:34:42;;;;;;;;;;;;;;;9.68;74.75;98886.81;1660901;85;21976;-88
2021/09/21 01:37:12;;;;;;;;;;;;;;;9.62;74.70;98896.70;1655386;84;21191;-88
2021/09/21 01:39:36;;;;;;;;;;;;;;;9.60;74.70;98896.42;1658629;85;24761;-88
2021/09/21 01:42:02;;;;;;;;;;;;;;;9.56;74.71;98894.90;1652151;85;20292;-88
2021/09/21 01:44:28;;;;;;;;;;;;;;;9.55;74.70;98897.97;1656278;85;24709;-88
2021/09/21 01:46:54;;;;;;;;;;;;;;;9.50;74.72;98894.79;1642836;85;22202;-87
2021/09/21 01:49:20;;;;;;;;;;;;;;;9.42;74.77;98900.09;1658930;84;26032;-87
2021/09/21 01:52:02;;;;;;;;;;;;;;;9.31;74.81;98896.80;1650819;84;25262;-87
2021/09/21 01:54:47;;;;;;;;;;;;;;;9.37;74.85;98893.84;1613079;86;20234;-87
2021/09/21 01:59:44;;;;;;;;;;;;;;;9.28;74.88;98895.65;1624136;86;22026;-88
2021/09/21 02:02:10;;;;;;;;;;;;;;;9.13;74.90;98889.54;1619854;86;26007;-88
2021/09/21 02:04:36;;;;;;;;;;;;;;;9.08;74.94;98888.11;1660464;85;24467;-87
2021/09/21 02:07:02;;;;;;;;;;;;;;;9.00;74.97;98896.36;1626345;86;20465;-87
2021/09/21 02:09:28;;;;;;;;;;;;;;;8.96;75.02;98901.84;1618870;86;20760;-87
2021/09/21 02:11:54;;;;;;;;;;;;;;;9.05;75.07;98903.50;1646978;85;20829;-87
2021/09/21 02:14:22;;;;;;;;;;;;;;;9.15;75.15;98908.58;1629612;86;25967;-88
2021/09/21 02:16:48;;;;;;;;;;;;;;;9.24;75.18;98906.75;1656000;85;24639;-87
2021/09/21 02:19:14;;;;;;;;;;;;;;;9.20;75.25;98911.77;1617704;86;20209;-87
2021/09/21 02:21:40;;;;;;;;;;;;;;;9.22;75.30;98911.66;1648139;85;20654;-87
2021/09/21 02:24:08;;;;;;;;;;;;;;;9.28;75.34;98912.63;1678671;83;20231;-87
2021/09/21 02:26:34;;;;;;;;;;;;;;;9.23;75.37;98910.74;1626846;86;26131;-87
2021/09/21 02:29:02;;;;;;;;;;;;;;;9.11;75.35;98908.36;1648161;85;24497;-87
2021/09/21 02:31:29;;;;;;;;;;;;;;;9.02;75.31;98914.56;1666274;84;20248;-87
2021/09/21 02:34:04;;;;;;;;;;;;;;;9.11;75.35;98915.38;1645785;85;24774;-87
2021/09/21 02:36:30;;;;;;;;;;;;;;;9.23;75.34;98912.89;1652056;85;22057;-87
2021/09/21 02:39:02;;;;;;;;;;;;;;;9.31;75.35;98914.23;1642281;85;20978;-88
2021/09/21 02:41:29;;;;;;;;;;;;;;;9.31;75.36;98914.23;1626499;85;26686;-88
2021/09/21 02:43:55;;;;;;;;;;;;;;;9.25;75.37;98915.42;1659617;84;20267;-88
2021/09/21 02:46:21;;;;;;;;;;;;;;;9.23;75.37;98923.80;1657084;84;24799;-88
2021/09/21 02:48:47;;;;;;;;;;;;;;;9.21;75.35;98923.91;1669914;83;20941;-88
2021/09/21 02:51:13;;;;;;;;;;;;;;;9.06;75.32;98929.12;1683275;83;26009;-88
2021/09/21 02:53:39;;;;;;;;;;;;;;;8.98;75.27;98925.65;1678701;83;20312;-88
2021/09/21 02:56:05;;;;;;;;;;;;;;;8.96;75.26;98927.48;1676805;83;20276;-88
2021/09/21 02:58:31;;;;;;;;;;;;;;;8.88;75.22;98927.09;1679110;83;24748;-88
2021/09/21 03:00:58;;;;;;;;;;;;;;;8.87;75.23;98921.48;1679129;83;20353;-88
2021/09/21 03:03:30;;;;;;;;;;;;;;;8.93;75.22;98924.22;1675918;83;26802;-88
2021/09/21 03:06:03;;;;;;;;;;;;;;;9.01;75.21;98926.77;1681084;83;25257;-88
2021/09/21 03:08:25;;;;;;;;;;;;;;;9.00;75.17;98926.87;1685259;83;20224;-88
2021/09/21 03:18:51;;;;;;;;;;;;;;;9.07;75.02;98936.88;1687602;84;24343;-86
2021/09/21 03:21:16;;;;;;;;;;;;;;;9.06;75.00;98944.78;1667278;85;20384;-87
2021/09/21 03:23:44;;;;;;;;;;;;;;;9.03;74.99;98946.27;1653355;85;20241;-87
2021/09/21 03:26:10;;;;;;;;;;;;;;;8.99;74.96;98948.69;1674548;84;21955;-87
2021/09/21 03:28:37;;;;;;;;;;;;;;;8.97;74.90;98953.13;1675824;84;25941;-87
2021/09/21 03:31:04;;;;;;;;;;;;;;;8.97;74.87;98954.44;1680300;83;20334;-88
2021/09/21 03:33:30;;;;;;;;;;;;;;;8.99;74.82;98962.58;1670101;83;20257;-87
2021/09/21 03:35:56;;;;;;;;;;;;;;;8.97;74.81;98963.58;1677597;84;20307;-88
2021/09/21 03:38:22;;;;;;;;;;;;;;;8.94;74.79;98973.73;1679973;83;20334;-88
2021/09/21 03:40:48;;;;;;;;;;;;;;;8.88;74.76;98972.77;1678759;84;26086;-87
2021/09/21 03:43:15;;;;;;;;;;;;;;;8.82;74.78;98970.48;1680741;83;20853;-88
2021/09/21 03:45:44;;;;;;;;;;;;;;;8.77;74.76;98965.52;1677288;84;20245;-87
2021/09/21 03:48:10;;;;;;;;;;;;;;;8.74;74.70;98955.69;1680244;84;20726;-87
2021/09/21 03:50:39;;;;;;;;;;;;;;;8.70;74.67;98962.00;1679043;83;20291;-87
2021/09/21 03:53:05;;;;;;;;;;;;;;;8.57;74.65;98966.18;1681122;83;26664;-87
2021/09/21 03:55:31;;;;;;;;;;;;;;;8.46;74.63;98966.75;1679533;83;20813;-87
2021/09/21 03:57:57;;;;;;;;;;;;;;;8.40;74.64;98962.70;1678924;83;20236;-87
2021/09/21 04:00:23;;;;;;;;;;;;;;;8.37;74.66;98967.24;1679859;83;20879;-87
2021/09/21 04:02:49;;;;;;;;;;;;;;;8.34;74.67;98973.94;1679534;84;22020;-87
2021/09/21 04:05:15;;;;;;;;;;;;;;;8.31;74.69;98971.47;1680161;83;26047;-87
2021/09/21 04:07:49;;;;;;;;;;;;;;;8.31;74.69;98965.80;1679745;83;24401;-88
2021/09/21 04:10:15;;;;;;;;;;;;;;;8.33;74.72;98973.55;1659000;85;20239;-88
2021/09/21 04:12:41;;;;;;;;;;;;;;;8.24;74.72;98970.91;1679616;83;20393;-88
2021/09/21 04:15:13;;;;;;;;;;;;;;;8.14;74.73;98981.89;1713701;82;22018;-88
2021/09/21 04:17:39;;;;;;;;;;;;;;;8.04;74.70;98977.61;1679226;83;26203;-88
2021/09/21 04:20:06;;;;;;;;;;;;;;;8.02;74.74;98979.93;1678876;83;20274;-88
2021/09/21 04:22:32;;;;;;;;;;;;;;;8.08;74.76;98979.59;1678048;84;20499;-87
2021/09/21 04:25:04;;;;;;;;;;;;;;;8.15;74.79;98965.33;1680384;83;25373;-88
2021/09/21 04:27:30;;;;;;;;;;;;;;;8.18;74.82;98969.10;1678504;84;21978;-88
2021/09/21 04:30:00;;;;;;;;;;;;;;;8.16;74.89;98968.33;1678412;83;26017;-87
2021/09/21 04:32:30;;;;;;;;;;;;;;;8.12;74.93;98970.26;1678965;83;25045;-87
2021/09/21 04:34:56;;;;;;;;;;;;;;;8.13;74.97;98973.72;1679491;83;20268;-87
2021/09/21 04:37:22;;;;;;;;;;;;;;;8.10;75.02;98976.45;1680245;84;20675;-87
2021/09/21 04:39:52;;;;;;;;;;;;;;;8.05;75.07;98981.06;1710126;82;20403;-88
2021/09/21 04:42:21;;;;;;;;;;;;;;;7.95;75.11;98986.75;1677175;83;25972;-88
2021/09/21 04:44:46;;;;;;;;;;;;;;;7.90;75.14;98976.18;1681807;83;25086;-87
2021/09/21 04:47:12;;;;;;;;;;;;;;;7.90;75.21;98986.60;1679870;83;20803;-86
2021/09/21 04:49:38;;;;;;;;;;;;;;;7.92;75.31;98980.83;1664469;84;20318;-87
2021/09/21 04:52:04;;;;;;;;;;;;;;;7.92;75.40;98982.98;1654904;84;22043;-88
2021/09/21 04:54:30;;;;;;;;;;;;;;;7.93;75.44;98990.34;1654859;85;26172;-87
2021/09/21 04:56:56;;;;;;;;;;;;;;;7.96;75.54;98987.11;1640947;85;20909;-87
2021/09/21 04:59:26;;;;;;;;;;;;;;;7.97;75.62;98987.50;1637570;85;20756;-87
2021/09/21 05:01:58;;;;;;;;;;;;;;;7.98;75.70;98992.26;1644042;85;25434;-87
2021/09/21 05:04:24;;;;;;;;;;;;;;;8.02;75.78;98993.78;1632084;85;22043;-87
2021/09/21 05:06:50;;;;;;;;;;;;;;;8.06;75.83;98995.33;1615653;85;26436;-87
2021/09/21 05:09:16;;;;;;;;;;;;;;;8.06;75.90;98994.48;1645025;85;20255;-87
2021/09/21 05:11:44;;;;;;;;;;;;;;;8.04;75.97;98997.62;1650628;85;20372;-89
2021/09/21 05:14:14;;;;;;;;;;;;;;;8.04;76.04;98997.62;1642530;85;24800;-88
2021/09/21 05:16:45;;;;;;;;;;;;;;;8.02;76.11;99006.00;1635445;85;21954;-88
2021/09/21 05:19:11;;;;;;;;;;;;;;;8.04;76.19;99012.80;1631505;85;26387;-87
2021/09/21 05:21:37;;;;;;;;;;;;;;;8.08;76.28;99013.48;1641672;85;24581;-87
2021/09/21 05:24:03;;;;;;;;;;;;;;;8.06;76.38;99018.80;1633477;85;20235;-87
2021/09/21 05:26:34;;;;;;;;;;;;;;;8.09;76.48;99013.87;1643727;85;24771;-88
2021/09/21 05:28:57;;;;;;;;;;;;;;;8.12;76.57;99015.03;1637880;85;22094;-87
2021/09/21 05:31:26;;;;;;;;;;;;;;;8.11;76.63;99023.77;1644316;85;25939;-88
2021/09/21 05:33:52;;;;;;;;;;;;;;;8.13;76.74;99025.36;1642126;85;24519;-88
2021/09/21 05:36:25;;;;;;;;;;;;;;;8.16;76.85;99032.20;1638998;85;20399;-87
2021/09/21 05:38:51;;;;;;;;;;;;;;;8.16;76.96;99041.33;1610494;86;24780;-88
2021/09/21 05:41:27;;;;;;;;;;;;;;;8.17;77.10;99042.56;1661432;84;23092;-87
2021/09/21 05:43:53;;;;;;;;;;;;;;;8.27;77.23;99049.45;1651822;84;26056;-88
2021/09/21 05:46:19;;;;;;;;;;;;;;;8.32;77.34;99052.70;1641206;85;24429;-87
2021/09/21 05:48:45;;;;;;;;;;;;;;;8.38;77.46;99054.53;1616007;87;20315;-87
2021/09/21 05:51:11;;;;;;;;;;;;;;;8.48;77.59;99052.75;1663105;84;20264;-88
2021/09/21 05:53:37;;;;;;;;;;;;;;;8.52;77.68;99051.66;1679970;83;20385;-87
2021/09/21 05:56:03;;;;;;;;;;;;;;;8.59;77.80;99051.28;1676798;83;20959;-87
2021/09/21 05:58:29;;;;;;;;;;;;;;;8.64;77.90;99049.27;1675271;83;24459;-87
2021/09/21 06:00:57;;;;;;;;;;;;;;;8.68;78.03;99052.09;1675570;84;20533;-87
2021/09/21 06:03:23;;;;;;;;;;;;;;;8.76;78.14;99061.69;1677839;83;25460;-87
2021/09/21 06:05:49;;;;;;;;;;;;;;;8.83;78.25;99056.15;1672984;83;20870;-88
2021/09/21 06:08:15;;;;;;;;;;;;;;;8.90;78.36;99063.55;1676104;84;26029;-87
2021/09/21 06:10:41;;;;;;;;;;;;;;;9.00;78.47;99066.05;1672666;83;24594;-88
2021/09/21 06:13:07;;;;;;;;;;;;;;;9.05;78.55;99068.44;1698322;83;20863;-87
2021/09/21 06:15:33;;;;;;;;;;;;;;;9.06;78.63;99066.19;1671469;85;24814;-87
2021/09/21 06:18:00;;;;;;;;;;;;;;;9.05;78.71;99064.53;1678022;84;22132;-87
2021/09/21 06:20:26;;;;;;;;;;;;;;;9.09;78.81;99068.19;1676386;84;21135;-87
2021/09/21 06:22:52;;;;;;;;;;;;;;;9.09;78.87;99066.88;1655950;85;24520;-88
2021/09/21 06:25:23;;;;;;;;;;;;;;;9.16;78.96;99065.61;1655873;85;20263;-88
2021/09/21 06:27:51;;;;;;;;;;;;;;;9.24;79.04;99060.83;1665050;84;26983;-87
2021/09/21 06:30:19;;;;;;;;;;;;;;;9.26;79.12;99062.06;1654824;84;21541;-88
2021/09/21 06:32:45;;;;;;;;;;;;;;;9.34;79.24;99058.55;1661495;84;26048;-88
2021/09/21 06:35:11;;;;;;;;;;;;;;;9.39;79.34;99061.75;1661877;84;24514;-87
2021/09/21 06:37:40;;;;;;;;;;;;;;;9.45;79.45;99052.73;1663250;84;20236;-87
2021/09/21 06:40:07;;;;;;;;;;;;;;;9.48;79.54;99057.80;1677736;83;25730;-88
2021/09/21 06:42:42;;;;;;;;;;;;;;;9.53;79.63;99060.55;1679517;84;22209;-88
2021/09/21 06:45:09;;;;;;;;;;;;;;;9.60;79.70;99063.17;1679098;82;26005;-88
2021/09/21 06:47:35;;;;;;;;;;;;;;;9.68;79.81;99062.75;1666946;84;24450;-87
2021/09/21 06:50:02;;;;;;;;;;;;;;;9.71;79.85;99062.56;1663313;84;20513;-87
2021/09/21 06:52:30;;;;;;;;;;;;;;;9.76;79.90;99057.95;1652000;85;25373;-87
2021/09/21 06:54:57;;;;;;;;;;;;;;;9.81;79.99;99062.45;1653244;85;21961;-88
2021/09/21 06:57:23;;;;;;;;;;;;;;;9.86;80.07;99058.27;1651745;85;26051;-88
2021/09/21 06:59:49;;;;;;;;;;;;;;;9.90;80.15;99062.38;1654404;85;24452;-88
2021/09/21 07:02:24;;;;;;;;;;;;;;;9.98;80.24;99063.61;1651885;85;20246;-88
2021/09/21 07:04:50;;;;;;;;;;;;;;;10.07;80.31;99061.80;1652400;85;24691;-88
2021/09/21 07:07:25;;;;;;;;;;;;;;;10.14;80.39;99067.52;1652806;85;21999;-88
2021/09/21 07:09:52;;;;;;;;;;;;;;;10.22;80.45;99067.09;1653570;85;25962;-88
2021/09/21 07:12:18;;;;;;;;;;;;;;;10.29;80.52;99075.81;1663731;84;24517;-87
2021/09/21 07:14:50;;;;;;;;;;;;;;;10.36;80.58;99080.23;1652212;86;20331;-87
2021/09/21 07:17:16;;;;;;;;;;;;;;;10.42;80.63;99081.99;1648924;85;24805;-88
2021/09/21 07:19:42;;;;;;;;;;;;;;;10.55;80.69;99086.51;1653688;85;20284;-88
2021/09/21 07:22:08;;;;;;;;;;;;;;;10.62;80.69;99087.84;1649676;85;20995;-88
2021/09/21 07:24:35;;;;;;;;;;;;;;;10.67;80.71;99087.09;1651618;85;20277;-87
2021/09/21 07:27:04;;;;;;;;;;;;;;;10.71;80.75;99085.97;1638288;86;20270;-87
2021/09/21 07:29:30;;;;;;;;;;;;;;;10.84;80.74;99092.17;1652514;85;24944;-87
2021/09/21 07:31:56;;;;;;;;;;;;;;;10.97;80.75;99093.55;1652391;85;22029;-88
2021/09/21 07:34:23;;;;;;;;;;;;;;;11.05;80.76;99095.25;1654247;85;26021;-87
2021/09/21 07:36:52;;;;;;;;;;;;;;;11.10;80.75;99102.36;1654687;85;24677;-88
2021/09/21 07:39:20;;;;;;;;;;;;;;;11.16;80.76;99101.52;1663029;85;20283;-88
2021/09/21 07:41:46;;;;;;;;;;;;;;;11.28;80.77;99101.23;1667085;84;24767;-87
2021/09/21 07:44:12;;;;;;;;;;;;;;;11.37;80.76;99107.20;1653113;85;22073;-87
2021/09/21 07:46:45;;;;;;;;;;;;;;;11.34;80.70;99111.34;1650418;85;26759;-88
2021/09/21 07:49:11;;;;;;;;;;;;;;;11.39;80.62;99114.52;1650740;86;24502;-87
2021/09/21 07:51:45;;;;;;;;;;;;;;;11.48;80.53;99117.86;1649143;85;20195;-88
2021/09/21 07:54:12;;;;;;;;;;;;;;;11.59;80.50;99121.12;1686772;83;24988;-87
2021/09/21 07:56:37;;;;;;;;;;;;;;;11.67;80.43;99121.49;1674366;83;22027;-87
2021/09/21 07:59:10;;;;;;;;;;;;;;;11.76;80.34;99121.39;1670894;83;26620;-87
2021/09/21 08:01:36;;;;;;;;;;;;;;;11.81;80.29;99124.56;1680901;83;24454;-87
2021/09/21 08:04:04;;;;;;;;;;;;;;;11.88;80.21;99122.77;1674221;83;20665;-88
2021/09/21 08:06:31;;;;;;;;;;;;;;;11.95;80.12;99114.86;1689151;83;39589;-87
2021/09/21 08:09:02;;;;;;;;;;;;;;;12.03;80.07;99119.16;1674861;83;20321;-87
2021/09/21 08:11:35;;;;;;;;;;;;;;;12.08;79.99;99122.32;1673434;83;26053;-87
2021/09/21 08:14:05;;;;;;;;;;;;;;;12.11;79.95;99124.73;1674134;83;24405;-87
2021/09/21 08:16:33;;;;;;;;;;;;;;;12.19;79.87;99128.65;1675610;83;20386;-88
2021/09/21 08:19:00;;;;;;;;;;;;;;;12.26;79.79;99134.72;1671939;83;25285;-88
2021/09/21 08:21:30;;;;;;;;;;;;;;;12.39;79.71;99130.80;1656500;85;22036;-88
2021/09/21 08:23:56;;;;;;;;;;;;;;;12.47;79.65;99136.40;1655661;85;26010;-88
2021/09/21 08:26:22;;;;;;;;;;;;;;;12.51;79.55;99138.71;1680951;83;24465;-88
2021/09/21 08:28:48;;;;;;;;;;;;;;;12.56;79.48;99135.30;1674639;83;20527;-88
2021/09/21 08:31:14;;;;;;;;;;;;;;;12.66;79.38;99139.46;1670658;84;24803;-88
2021/09/21 08:33:41;;;;;;;;;;;;;;;12.73;79.31;99131.55;1682043;83;21967;-89
2021/09/21 08:36:08;;;;;;;;;;;;;;;12.81;79.24;99137.14;1697029;83;21403;-88
2021/09/21 08:38:34;;;;;;;;;;;;;;;12.83;79.13;99139.17;1673657;83;20290;-88
2021/09/21 08:41:00;;;;;;;;;;;;;;;12.89;79.05;99134.82;1675505;83;20241;-88
2021/09/21 08:43:26;;;;;;;;;;;;;;;12.97;78.95;99136.47;1673115;83;24695;-88
2021/09/21 08:45:57;;;;;;;;;;;;;;;13.05;78.87;99136.39;1676359;83;20240;-88
2021/09/21 08:48:20;;;;;;;;;;;;;;;13.08;78.74;99143.61;1676556;83;26174;-88
2021/09/21 08:50:48;;;;;;;;;;;;;;;13.11;78.60;99138.13;1690915;83;20238;-88
2021/09/21 08:53:14;;;;;;;;;;;;;;;13.15;78.46;99144.03;1673084;84;20216;-88
2021/09/21 08:55:46;;;;;;;;;;;;;;;13.17;78.28;99136.91;1676088;84;20288;-88
2021/09/21 08:58:13;;;;;;;;;;;;;;;13.20;78.09;99140.65;1674509;84;21946;-88
2021/09/21 09:00:39;;;;;;;;;;;;;;;13.23;77.93;99146.52;1675927;84;25957;-88
2021/09/21 09:03:07;;;;;;;;;;;;;;;13.27;77.83;99144.52;1674260;83;20816;-88
2021/09/21 09:05:54;;;;;;;;;;;;;;;13.29;77.68;99147.89;1672302;84;20236;-88
2021/09/21 09:08:31;;;;;;;;;;;;;;;13.24;77.49;99150.00;1673647;84;25014;-88
2021/09/21 09:11:11;;;;;;;;;;;;;;;13.25;77.30;99142.02;1674488;84;22116;-89
2021/09/21 09:13:49;;;;;;;;;;;;;;;13.31;77.21;99141.56;1672880;84;26687;-88
2021/09/21 09:16:22;;;;;;;;;;;;;;;13.33;77.07;99146.72;1672816;84;24069;-88
2021/09/21 09:18:50;;;;;;;;;;;;;;;13.32;76.94;99141.93;1647653;85;20260;-88
2021/09/21 09:21:17;;;;;;;;;;;;;;;13.33;76.81;99142.30;1646775;85;25375;-88
2021/09/21 09:23:47;;;;;;;;;;;;;;;13.41;76.73;99144.41;1660333;85;22138;-89
2021/09/21 09:26:25;;;;;;;;;;;;;;;13.45;76.58;99140.61;1646898;85;26121;-89
2021/09/21 09:28:52;;;;;;;;;;;;;;;13.46;76.44;99142.30;1650312;85;24425;-89
2021/09/21 09:31:22;;;;;;;;;;;;;;;13.44;76.31;99142.86;1650063;85;20488;-88
2021/09/21 09:33:51;;;;;;;;;;;;;;;13.49;76.20;99139.44;1658100;86;24738;-89
2021/09/21 09:36:24;;;;;;;;;;;;;;;13.53;76.10;99142.71;1649805;86;21996;-89
2021/09/21 09:38:58;;;;;;;;;;;;;;;13.62;76.01;99146.00;1647513;85;25994;-88
2021/09/21 09:41:26;;;;;;;;;;;;;;;13.69;75.90;99136.22;1648497;85;25157;-89
2021/09/21 09:43:53;;;;;;;;;;;;;;;13.76;75.74;99136.63;1647393;85;20489;-89
2021/09/21 09:46:19;;;;;;;;;;;;;;;13.80;75.57;99131.54;1657744;85;24806;-89
2021/09/21 09:48:45;;;;;;;;;;;;;;;13.74;75.35;99130.19;1660501;84;20297;-89
2021/09/21 09:51:11;;;;;;;;;;;;;;;13.70;75.11;99128.70;1652341;84;25983;-89
2021/09/21 09:53:37;;;;;;;;;;;;;;;13.77;74.92;99126.01;1649867;85;20815;-89
2021/09/21 09:56:16;;;;;;;;;;;;;;;13.85;74.71;99133.84;1648608;85;20493;-88
2021/09/21 09:58:43;;;;;;;;;;;;;;;13.83;74.46;99132.63;1668705;84;20395;-89
2021/09/21 10:01:09;;;;;;;;;;;;;;;13.79;74.10;99127.22;1651121;85;20863;-89
2021/09/21 10:03:36;;;;;;;;;;;;;;;13.80;73.87;99128.91;1660985;84;25994;-88
2021/09/21 10:06:02;;;;;;;;;;;;;;;13.69;73.55;99130.16;1646560;85;24494;-89
2021/09/21 10:08:28;;;;;;;;;;;;;;;13.77;73.36;99128.64;1666475;84;20195;-88
2021/09/21 10:10:54;;;;;;;;;;;;;;;13.87;73.18;99128.81;1662527;85;24748;-88
2021/09/21 10:13:21;;;;;;;;;;;;;;;13.96;73.01;99126.01;1650081;86;22004;-88
2021/09/21 10:15:49;;;;;;;;;;;;;;;13.99;72.81;99127.09;1656558;85;25977;-89
2021/09/21 10:18:23;;;;;;;;;;;;;;;14.08;72.64;99125.09;1656043;85;25456;-89
2021/09/21 10:21:01;;;;;;;;;;;;;;;14.11;72.44;99130.15;1653585;86;20256;-89
2021/09/21 10:23:31;;;;;;;;;;;;;;;14.18;72.27;99130.88;1654627;85;24833;-89
2021/09/21 10:26:00;;;;;;;;;;;;;;;14.25;72.07;99127.33;1655335;85;22095;-89
2021/09/21 10:28:29;;;;;;;;;;;;;;;14.29;71.92;99127.97;1689792;83;26764;-89
2021/09/21 10:30:56;;;;;;;;;;;;;;;14.39;71.79;99131.15;1650235;85;24403;-89
2021/09/21 10:33:23;;;;;;;;;;;;;;;14.47;71.65;99122.19;1647208;86;21329;-89
2021/09/21 10:35:55;;;;;;;;;;;;;;;14.52;71.48;99124.00;1646810;86;24846;-89
2021/09/21 10:38:22;;;;;;;;;;;;;;;14.50;71.24;99124.61;1647710;86;22062;-89
2021/09/21 10:40:55;;;;;;;;;;;;;;;14.60;71.06;99116.37;1648998;85;25941;-88
2021/09/21 10:43:36;;;;;;;;;;;;;;;14.73;70.95;99111.50;1657739;84;24452;-89
2021/09/21 10:46:09;;;;;;;;;;;;;;;14.87;70.88;99117.86;1663896;84;20176;-89
2021/09/21 10:48:42;;;;;;;;;;;;;;;14.99;70.75;99116.93;1634421;85;24938;-88
2021/09/21 10:51:09;;;;;;;;;;;;;;;14.99;70.54;99119.56;1680196;82;22031;-89
2021/09/21 10:53:36;;;;;;;;;;;;;;;14.88;70.22;99120.39;1646042;84;26120;-89
2021/09/21 10:56:04;;;;;;;;;;;;;;;14.84;69.90;99123.34;1645681;84;24548;-89
2021/09/21 10:58:45;;;;;;;;;;;;;;;14.81;69.63;99123.59;1660160;84;20294;-89
2021/09/21 11:01:12;;;;;;;;;;;;;;;14.71;69.28;99113.40;1649872;85;24794;-89
2021/09/21 11:03:44;;;;;;;;;;;;;;;14.74;69.00;99117.10;1651401;85;21911;-89
2021/09/21 11:06:16;;;;;;;;;;;;;;;14.78;68.78;99115.94;1661420;84;26083;-89
2021/09/21 11:08:44;;;;;;;;;;;;;;;14.86;68.56;99112.22;1651173;85;24692;-89
2021/09/21 11:11:10;;;;;;;;;;;;;;;14.97;68.39;99101.70;1650377;85;20232;-89
2021/09/21 11:13:54;;;;;;;;;;;;;;;15.04;68.25;99095.84;1649679;85;24912;-89
2021/09/21 11:16:23;;;;;;;;;;;;;;;15.10;68.09;99098.97;1645932;84;21995;-89
2021/09/21 11:18:51;;;;;;;;;;;;;;;15.18;67.94;99097.39;1649863;85;25993;-88
2021/09/21 11:21:17;;;;;;;;;;;;;;;15.29;67.80;99090.80;1643914;84;25162;-89
2021/09/21 11:23:44;;;;;;;;;;;;;;;15.32;67.64;99093.22;1646359;84;20506;-89
2021/09/21 11:26:11;;;;;;;;;;;;;;;15.29;67.41;99096.55;1646162;85;20235;-89
2021/09/21 11:28:39;;;;;;;;;;;;;;;15.24;67.25;99088.16;1652502;85;22047;-89
2021/09/21 11:31:05;;;;;;;;;;;;;;;15.30;67.06;99098.23;1653492;85;26088;-89
2021/09/21 11:33:33;;;;;;;;;;;;;;;15.38;66.89;99094.02;1618296;86;24507;-89
2021/09/21 11:36:04;;;;;;;;;;;;;;;15.42;66.78;99090.69;1642068;85;20299;-89
2021/09/21 11:38:32;;;;;;;;;;;;;;;15.55;66.72;99089.27;1641633;84;24778;-89
2021/09/21 11:41:04;;;;;;;;;;;;;;;15.56;66.52;99085.65;1657372;84;21996;-89
2021/09/21 11:43:30;;;;;;;;;;;;;;;15.60;66.36;99085.78;1656375;84;26063;-89
2021/09/21 11:45:56;;;;;;;;;;;;;;;15.63;66.21;99079.77;1645212;85;24433;-89
2021/09/21 11:48:22;;;;;;;;;;;;;;;15.72;66.11;99082.98;1648072;85;20237;-89
2021/09/21 11:50:49;;;;;;;;;;;;;;;15.65;65.94;99080.50;1648230;85;24780;-89
2021/09/21 11:53:16;;;;;;;;;;;;;;;15.59;65.63;99074.87;1663195;84;22226;-89
2021/09/21 11:55:44;;;;;;;;;;;;;;;15.69;65.52;99070.52;1664506;84;26106;-89
2021/09/21 11:58:14;;;;;;;;;;;;;;;15.71;65.29;99068.09;1645797;85;25187;-89
2021/09/21 12:00:55;;;;;;;;;;;;;;;15.83;65.14;99062.31;1663958;83;20243;-89
2021/09/21 12:03:24;;;;;;;;;;;;;;;15.92;65.01;99070.83;1655173;85;24260;-89
2021/09/21 12:05:54;;;;;;;;;;;;;;;15.98;64.84;99061.56;1658309;84;21997;-89
2021/09/21 12:08:24;;;;;;;;;;;;;;;16.05;64.69;99063.56;1663648;84;26216;-89
2021/09/21 12:10:52;;;;;;;;;;;;;;;16.11;64.52;99063.53;1661766;85;24513;-89
2021/09/21 12:13:21;;;;;;;;;;;;;;;16.11;64.31;99051.17;1650426;85;20240;-89
2021/09/21 12:15:51;;;;;;;;;;;;;;;16.13;64.11;99051.06;1661088;84;24844;-89
2021/09/21 12:18:17;;;;;;;;;;;;;;;16.17;63.89;99044.55;1663920;84;22152;-89
2021/09/21 12:20:45;;;;;;;;;;;;;;;16.25;63.69;99039.48;1650968;85;26061;-89
2021/09/21 12:23:12;;;;;;;;;;;;;;;16.31;63.51;99043.74;1662101;84;25267;-89
2021/09/21 12:25:40;;;;;;;;;;;;;;;16.34;63.26;99043.98;1661255;85;20552;-89
2021/09/21 12:28:07;;;;;;;;;;;;;;;16.35;63.03;99048.79;1668142;84;24806;-89
2021/09/21 12:30:41;;;;;;;;;;;;;;;16.33;62.84;99050.23;1658258;84;24026;-89
2021/09/21 12:33:15;;;;;;;;;;;;;;;16.27;62.67;99046.77;1648386;84;26067;-89
2021/09/21 12:35:46;;;;;;;;;;;;;;;16.20;62.53;99050.41;1655026;84;24434;-89
2021/09/21 12:38:14;;;;;;;;;;;;;;;16.14;62.34;99052.73;1666172;83;20297;-89
2021/09/21 12:41:00;;;;;;;;;;;;;;;16.09;62.24;99054.92;1657057;84;24947;-89
2021/09/21 12:43:28;;;;;;;;;;;;;;;15.94;62.20;99058.80;1653224;84;21529;-90
2021/09/21 12:45:58;;;;;;;;;;;;;;;15.77;62.01;99066.77;1656655;84;26673;-89
2021/09/21 12:48:31;;;;;;;;;;;;;;;15.73;61.93;99065.34;1662419;84;25244;-90
2021/09/21 12:50:58;;;;;;;;;;;;;;;15.69;61.87;99062.13;1655921;85;20238;-90
2021/09/21 12:53:25;;;;;;;;;;;;;;;15.62;61.76;99068.01;1644100;84;24892;-89
2021/09/21 12:55:59;;;;;;;;;;;;;;;15.49;61.61;99067.63;1660559;84;22596;-88
2021/09/21 12:58:33;;;;;;;;;;;;;;;15.37;61.41;99077.02;1682364;83;26979;-90
2021/09/21 13:00:57;;;;;;;;;;;;;;;15.24;61.25;99081.57;1686580;83;24400;-90
2021/09/21 13:03:23;;;;;;;;;;;;;;;15.09;61.16;99090.21;1680257;83;20306;-89
2021/09/21 13:05:49;;;;;;;;;;;;;;;14.86;61.08;99091.14;1685139;83;20669;-89